METAR Data
IDs: Format: Raw Decoded Include TAF

Data at: 1225 UTC 16 Jul 2019

KSAF 161153Z AUTO 01006KT 10SM CLR 18/11 A3020 RMK AO2 SLP111 T01780106 10228 20172 53005
KSAF 161053Z AUTO 00000KT 10SM CLR 19/11 A3018 RMK AO2 SLP101 T01940106
KSAF 160953Z AUTO 00000KT 10SM CLR 21/12 A3018 RMK AO2 SLP098 T02060117
KSAF 160853Z AUTO 09005KT 10SM CLR 20/12 A3019 RMK AO2 SLP098 T02000117 58004
KSAF 160753Z AUTO VRB04KT 10SM FEW120 21/11 A3021 RMK AO2 SLP103 T02110106
KSAF 160653Z AUTO 26004KT 10SM CLR 21/11 A3020 RMK AO2 SLP108 T02110111 403280150
KSAF 160553Z AUTO 12009KT 10SM CLR 23/09 A3020 RMK AO2 SLP105 60000 T02330094 10311 20217 51015
KSAF 160453Z AUTO 09004KT 10SM CLR 23/11 A3020 RMK AO2 SLP106 T02330106
KSAF 160353Z AUTO 35006KT 10SM SCT100 24/09 A3019 RMK AO2 RAB02E21 SLP108 P0000 T02440089
KSAF 160253Z AUTO 28007KT 10SM CLR 26/09 A3015 RMK AO2 SLP096 T02610089 53006
KSAF 160153Z 29011KT 10SM FEW120 27/09 A3014 RMK AO2 LTG DSNT NW SLP098 T02720094
KSAF 160053Z 25009KT 10SM CLR 29/09 A3012 RMK AO2 LTG DSNT NW SLP092 T02890089
KSAF 152353Z VRB04KT 10SM CLR 31/07 A3012 RMK AO2 SLP088 T03110072 10328 20272 56015
KSAF 152253Z 22005KT 10SM CLR 31/08 A3014 RMK AO2 LTG DSNT SW SLP092 T03060078
KSAF 152153Z 27005KT 10SM CLR 30/08 A3016 RMK AO2 SLP100 T03000083
KSAF 152053Z 02011G14KT 340V060 10SM CLR 32/07 A3018 RMK AO2 LTG DSNT E SLP099 T03220072 58019
KSAF 151953Z 01012G17KT 10SM CLR 32/09 A3020 RMK AO2 LTG DSNT SE AND W SLP104 T03170089
KSAF 151853Z 36007G16KT 320V050 10SM CLR 29/12 A3023 RMK AO2 SLP123 T02890117
KSAF 151753Z 34009KT 10SM CLR 28/13 A3024 RMK AO2 SLP130 T02780133 10278 20150 56011
KSAF 151653Z 35008KT 10SM CLR 26/13 A3026 RMK AO2 SLP139 T02610128
KSAF 151553Z 36009KT 10SM CLR 23/14 A3027 RMK AO2 SLP151 T02280139
KSAF 151453Z 36012KT 10SM CLR 20/13 A3028 RMK AO2 SLP161 T02000133 50000
KSAF 151353Z 35011KT 10SM CLR 18/13 A3029 RMK AO2 SLP163 T01830133
KSAF 151253Z 01011KT 10SM CLR 16/13 A3029 RMK AO2 SLP148 T01560133
KSAF 151153Z 01010KT 10SM CLR 15/13 A3028 RMK AO2 SLP144 60001 70072 T01500133 10206 20150 53005
KSAF 151053Z 35011KT 10SM CLR 16/14 A3028 RMK AO2 SLP139 T01560139
KSAF 150953Z 01011KT 10SM CLR 17/14 A3027 RMK AO2 SLP133 T01670139
KSAF 150853Z 34009KT 10SM SCT100 18/14 A3026 RMK AO2 RAB05E15 SLP135 P0000 60001 T01780139 56014
KSAF 150753Z 33008KT 10SM SCT080 BKN110 19/13 A3027 RMK AO2 RAE42 SLP129 P0001 T01940128
KSAF 150653Z 09009KT 10SM -RA OVC100 19/14 A3030 RMK AO2 RAB25 SLP140 P0000 T01890139 403440150
KSAF 150553Z 01009KT 10SM BKN100 18/13 A3031 RMK AO2 SLP148 60071 T01830133 10322 20178 51010
KSAF 150453Z 36019G26KT 10SM BKN110 18/13 A3030 RMK AO2 PK WND 36026/0430 SLP148 T01830133
KSAF 150353Z 36013KT 10SM OVC100 18/13 A3030 RMK AO2 PK WND 02030/0300 LTG DSNT E RAE32 SLP149 P0003 T01830133
KSAF 150309Z 04021G30KT 10SM RA FEW050 FEW060 OVC100 18/14 A3028 RMK AO2 PK WND 02030/0300 LTG DSNT N-E P0001 T01830139
KSAF 150253Z 02022G35KT 7SM VCTS -RA FEW055 OVC100 19/14 A3028 RMK AO2 PK WND 01035/0245 WSHFT 0232 LTG DSNT NE AND E RAE15B42 TSE07 SLP147 P0021 60068 T01890139 51024
KSAF 150213Z 12012KT 10SM VCTS -RA FEW031 SCT050 BKN100 19/13 A3022 RMK AO2 WSHFT 0145 LTG DSNT N-E TSE07 P0018 T01890133
KSAF 150206Z 12014KT 10SM -TSRA SCT032 SCT050 BKN095 21/11 A3023 RMK AO2 WSHFT 0145 LTG DSNT N-E P0018 T02110111
KSAF 150159Z 13014KT 2 1/2SM TSRA SCT032 BKN050 OVC095 21/12 A3023 RMK AO2 WSHFT 0145 LTG DSNT N-E P0012 T02060117
KSAF 150153Z 12017G24KT 1SM +TSRA SCT030 BKN048 OVC095 20/11 A3023 RMK AO2 PK WND 16027/0139 LTG DSNT N RAB26 TSB52 SLP136 P0047 T02000111
KSAF 150142Z 15016G27KT 110V180 1 3/4SM VCTS RA FEW030 OVC100 22/13 A3023 RMK AO2 PK WND 16027/0139 LTG DSNT N AND NE AND SW RAB26 P0017 T02170128
KSAF 150053Z 14013G20KT 10SM VCTS BKN110 31/07 A3019 RMK AO2 LTG DSNT S AND SW SLP108 T03110067
KSAF 150048Z 14010KT 10SM VCTS BKN100 31/06 A3019 RMK AO2 LTG DSNT S AND SW